createdAt,value
2022-12-16T00:02:37.546Z,0.44
2022-12-16T00:05:05.867Z,0.45
2022-12-16T00:07:33.628Z,-0.31
2022-12-16T00:10:01.299Z,0.41
2022-12-16T00:12:29.209Z,0.43
2022-12-16T00:14:56.875Z,0.43
2022-12-16T00:17:24.709Z,0.34
2022-12-16T00:19:53.770Z,0.40
2022-12-16T00:22:23.910Z,0.39
2022-12-16T00:24:52.341Z,0.39
2022-12-16T00:27:20.145Z,0.38
2022-12-16T00:29:47.761Z,0.36
2022-12-16T00:32:15.459Z,0.23
2022-12-16T00:34:43.264Z,0.32
2022-12-16T00:37:14.155Z,0.30
2022-12-16T00:39:41.910Z,0.27
2022-12-16T00:42:09.609Z,0.20
2022-12-16T00:44:37.493Z,0.21
2022-12-16T00:47:05.289Z,0.16
2022-12-16T00:49:33.145Z,0.12
2022-12-16T00:52:00.929Z,0.10
2022-12-16T00:54:30.107Z,0.10
2022-12-16T00:56:57.752Z,0.10
2022-12-16T00:59:26.590Z,0.08
2022-12-16T01:01:54.583Z,0.09
2022-12-16T01:04:23.039Z,0.07
2022-12-16T01:06:50.848Z,0.02
2022-12-16T01:09:18.486Z,0.04
2022-12-16T01:11:47.608Z,-0.03
2022-12-16T01:14:15.236Z,0.01
2022-12-16T01:16:42.943Z,0.00
2022-12-16T01:19:10.893Z,-0.10
2022-12-16T01:21:38.609Z,-0.03
2022-12-16T01:24:07.173Z,-0.10
2022-12-16T01:26:34.831Z,-0.08
2022-12-16T01:29:05.113Z,-0.17
2022-12-16T01:31:32.902Z,-0.12
2022-12-16T01:34:00.849Z,-0.13
2022-12-16T01:36:28.515Z,-0.13
2022-12-16T01:38:56.636Z,-0.20
2022-12-16T01:41:24.336Z,-0.17
2022-12-16T01:43:52.097Z,-0.18
2022-12-16T01:46:22.604Z,-0.20
2022-12-16T01:48:52.870Z,-0.20
2022-12-16T01:51:23.797Z,-0.20
2022-12-16T01:53:52.028Z,-0.31
2022-12-16T01:56:23.249Z,-0.26
2022-12-16T01:58:51.148Z,-0.23
2022-12-16T02:01:23.570Z,-0.33
2022-12-16T02:03:51.534Z,-0.35
2022-12-16T02:06:20.902Z,-0.36
2022-12-16T02:08:49.129Z,-0.39
2022-12-16T02:11:28.902Z,-0.75
2022-12-16T02:14:16.087Z,-0.42
2022-12-16T02:16:47.977Z,-0.45
2022-12-16T02:19:28.042Z,-0.46
2022-12-16T02:21:58.338Z,-0.46
2022-12-16T02:25:03.424Z,-0.48
2022-12-16T02:27:42.089Z,-0.58
2022-12-16T02:30:23.310Z,-0.49
2022-12-16T02:32:54.776Z,-0.50
2022-12-16T02:35:26.566Z,-0.49
2022-12-16T02:37:57.950Z,-0.77
2022-12-16T02:40:27.959Z,-0.50
2022-12-16T02:42:57.107Z,-0.49
2022-12-16T02:45:27.742Z,-0.58
2022-12-16T02:47:55.820Z,-0.51
2022-12-16T02:50:25.126Z,-0.53
2022-12-16T02:52:52.839Z,-0.54
2022-12-16T02:55:20.894Z,-0.54
2022-12-16T02:58:08.960Z,-0.53
2022-12-16T03:00:42.229Z,-0.82
2022-12-16T03:03:10.922Z,-0.77
2022-12-16T03:05:40.863Z,-0.56
2022-12-16T03:08:10.184Z,-0.57
2022-12-16T03:10:39.737Z,-0.67
2022-12-16T03:13:07.407Z,-0.70
2022-12-16T03:15:35.358Z,-1.02
2022-12-16T03:18:04.813Z,-1.02
2022-12-16T03:20:34.900Z,-0.59
2022-12-16T03:23:04.054Z,-0.72
2022-12-16T03:25:31.877Z,-0.60
2022-12-16T03:28:01.662Z,-0.63
2022-12-16T03:30:31.039Z,-0.65
2022-12-16T03:33:00.265Z,-0.95
2022-12-16T03:35:33.295Z,-0.65
2022-12-16T03:38:01.107Z,-0.72
2022-12-16T03:40:28.985Z,-0.67
2022-12-16T03:42:56.645Z,-0.67
2022-12-16T03:45:25.763Z,-0.92
2022-12-16T03:47:53.643Z,-0.74
2022-12-16T03:50:25.176Z,-0.83
2022-12-16T03:52:54.259Z,-0.75
2022-12-16T03:55:21.961Z,-0.75
2022-12-16T03:57:49.788Z,-0.92
2022-12-16T04:00:17.966Z,-0.82
2022-12-16T04:02:45.759Z,-0.79
2022-12-16T04:05:14.024Z,-0.81
2022-12-16T04:07:41.703Z,-0.85
2022-12-16T04:10:11.038Z,-0.83
2022-12-16T04:12:56.543Z,-0.82
2022-12-16T04:15:41.627Z,-0.91
2022-12-16T04:18:28.082Z,-0.87
2022-12-16T04:21:13.984Z,-0.88
2022-12-16T04:24:02.232Z,-0.90
2022-12-16T04:26:31.203Z,-0.93
2022-12-16T04:28:59.149Z,-0.89
2022-12-16T04:31:27.056Z,-0.88
2022-12-16T04:34:12.535Z,-0.91
2022-12-16T04:36:59.041Z,-0.89
2022-12-16T04:39:44.097Z,-0.92
2022-12-16T04:42:31.944Z,-0.93
2022-12-16T04:45:17.545Z,-0.93
2022-12-16T04:48:02.986Z,-0.99
2022-12-16T04:50:48.177Z,-0.95
2022-12-16T04:53:34.047Z,-1.00
2022-12-16T04:56:19.749Z,-1.01
2022-12-16T04:59:06.551Z,-1.00
2022-12-16T05:01:51.901Z,-0.99
2022-12-16T05:04:37.237Z,-0.99
2022-12-16T05:07:22.658Z,-1.01
2022-12-16T05:10:07.962Z,-1.00
2022-12-16T05:12:53.427Z,-1.01
2022-12-16T05:15:40.076Z,-1.02
2022-12-16T05:18:28.575Z,-1.12
2022-12-16T05:21:13.881Z,-1.07
2022-12-16T05:23:59.239Z,-1.37
2022-12-16T05:26:44.414Z,-1.07
2022-12-16T05:29:29.766Z,-1.09
2022-12-16T05:32:16.419Z,-1.13
2022-12-16T05:35:01.875Z,-1.34
2022-12-16T05:37:47.351Z,-1.09
2022-12-16T05:40:32.430Z,-1.08
2022-12-16T05:43:17.785Z,-1.08
2022-12-16T05:46:03.072Z,-1.14
2022-12-16T05:48:49.675Z,-1.10
2022-12-16T05:51:35.027Z,-1.16
2022-12-16T05:54:20.123Z,-1.16
2022-12-16T05:57:05.199Z,-1.17
2022-12-16T06:02:18.399Z,-1.16
2022-12-16T06:05:05.356Z,-1.18
2022-12-16T06:07:50.803Z,-1.17
2022-12-16T06:10:35.889Z,-1.17
2022-12-16T06:13:21.560Z,-1.17
2022-12-16T06:16:09.140Z,-1.20
2022-12-16T06:18:54.876Z,-1.17
2022-12-16T06:21:42.009Z,-1.18
2022-12-16T06:24:27.468Z,-1.16
2022-12-16T06:27:12.662Z,-1.16
2022-12-16T06:29:58.319Z,-1.16
2022-12-16T06:32:43.403Z,-1.18
2022-12-16T06:35:28.581Z,-1.17
2022-12-16T06:38:15.381Z,-1.17
2022-12-16T06:41:00.571Z,-1.20
2022-12-16T06:43:46.036Z,-1.20
2022-12-16T06:46:31.246Z,-1.16
2022-12-16T06:49:16.594Z,-1.20
2022-12-16T06:52:01.690Z,-1.17
2022-12-16T06:54:48.420Z,-1.20
2022-12-16T06:57:33.765Z,-1.19
2022-12-16T07:00:18.970Z,-1.18
2022-12-16T07:03:04.708Z,-1.20
2022-12-16T07:05:50.308Z,-1.20
2022-12-16T07:08:35.775Z,-1.22
2022-12-16T07:11:22.381Z,-1.17
2022-12-16T07:14:07.739Z,-1.15
2022-12-16T07:17:02.495Z,-1.14
2022-12-16T07:19:47.726Z,-1.14
2022-12-16T07:22:34.270Z,-1.13
2022-12-16T07:28:27.399Z,-1.13
2022-12-16T07:31:16.506Z,-1.10
2022-12-16T07:37:17.819Z,-1.07
2022-12-16T07:40:03.599Z,-1.10
2022-12-16T07:42:45.429Z,-1.01
2022-12-16T07:45:37.105Z,-1.17
2022-12-16T07:48:25.069Z,-0.92
2022-12-16T07:51:10.658Z,-0.93
2022-12-16T07:53:56.136Z,-0.84
2022-12-16T07:56:41.814Z,-0.80
2022-12-16T07:59:27.294Z,-0.75
2022-12-16T08:02:14.288Z,-0.69
2022-12-16T08:05:12.638Z,-0.67
2022-12-16T08:07:58.551Z,-0.63
2022-12-16T08:10:44.164Z,-0.58
2022-12-16T08:13:29.779Z,-0.52
2022-12-16T08:16:15.646Z,-0.47
2022-12-16T08:19:07.575Z,-0.47
2022-12-16T08:21:56.474Z,-0.33
2022-12-16T08:24:41.237Z,0.13
2022-12-16T08:27:26.673Z,1.21
2022-12-16T08:30:17.385Z,2.47
2022-12-16T08:33:12.110Z,3.67
2022-12-16T08:36:07.283Z,4.62
2022-12-16T08:38:52.998Z,5.55
2022-12-16T08:41:38.628Z,6.46
2022-12-16T08:44:24.404Z,7.25
2022-12-16T08:47:09.860Z,8.10
2022-12-16T08:49:57.907Z,8.84
2022-12-16T08:52:48.662Z,9.34
2022-12-16T08:55:48.631Z,9.73
2022-12-16T08:58:33.950Z,10.21
2022-12-16T09:01:19.499Z,10.78
2022-12-16T09:04:05.076Z,11.38
2022-12-16T09:06:52.421Z,11.82
2022-12-16T09:09:39.180Z,12.31
2022-12-16T09:12:25.181Z,12.95
2022-12-16T09:15:10.604Z,13.60
2022-12-16T09:17:55.897Z,14.29
2022-12-16T09:20:41.983Z,14.81
2022-12-16T09:23:29.503Z,15.29
2022-12-16T09:26:17.777Z,15.73
2022-12-16T09:29:06.927Z,16.09
2022-12-16T09:31:52.446Z,16.68
2022-12-16T09:34:37.946Z,17.21
2022-12-16T09:37:23.473Z,17.65
2022-12-16T09:40:09.041Z,18.24
2022-12-16T09:42:59.988Z,18.67
2022-12-16T09:45:53.361Z,19.11
2022-12-16T09:48:41.285Z,19.62
2022-12-16T09:51:27.041Z,19.96
2022-12-16T09:54:13.108Z,20.11
2022-12-16T09:56:58.530Z,20.62
2022-12-16T09:59:46.897Z,20.95
2022-12-16T10:02:33.383Z,21.34
2022-12-16T10:05:18.983Z,21.78
2022-12-16T10:08:19.133Z,22.16
2022-12-16T10:11:07.389Z,22.58
2022-12-16T10:13:55.796Z,22.85
2022-12-16T10:16:46.805Z,23.16
2022-12-16T10:19:40.531Z,23.47
2022-12-16T10:25:46.191Z,24.07
2022-12-16T10:28:34.856Z,24.38
2022-12-16T10:31:20.545Z,24.64
2022-12-16T10:34:08.284Z,24.71
2022-12-16T10:36:55.396Z,25.24
2022-12-16T10:39:44.806Z,25.61
2022-12-16T10:42:35.402Z,25.86
2022-12-16T10:45:20.528Z,26.10
2022-12-16T10:48:05.861Z,26.29
2022-12-16T10:50:52.607Z,26.58
2022-12-16T10:53:41.236Z,26.85
2022-12-16T10:56:33.373Z,27.20
2022-12-16T10:59:20.308Z,27.34
2022-12-16T11:02:16.063Z,27.76
2022-12-16T11:05:06.746Z,28.08
2022-12-16T11:07:56.744Z,28.30
2022-12-16T11:10:52.939Z,28.68
2022-12-16T11:13:40.945Z,28.65
2022-12-16T11:16:29.451Z,29.08
2022-12-16T11:19:16.105Z,29.38
2022-12-16T11:22:01.553Z,29.61
2022-12-16T11:24:48.728Z,29.72
2022-12-16T11:27:40.534Z,30.00
2022-12-16T11:30:37.571Z,30.26
2022-12-16T11:33:29.004Z,30.63
2022-12-16T11:36:23.997Z,30.94
2022-12-16T11:39:11.830Z,31.20
2022-12-16T11:41:59.943Z,31.63
2022-12-16T11:44:47.050Z,31.92
2022-12-16T11:47:39.094Z,32.14
2022-12-16T11:50:30.547Z,32.55
2022-12-16T11:53:15.813Z,32.97
2022-12-16T11:56:10.786Z,33.42
2022-12-16T11:59:01.531Z,33.82
2022-12-16T12:01:48.805Z,34.07
2022-12-16T12:04:34.516Z,34.28
2022-12-16T12:07:44.643Z,34.47
2022-12-16T12:10:52.331Z,34.65
2022-12-16T12:13:46.970Z,34.82
2022-12-16T12:16:36.805Z,34.58
2022-12-16T12:19:43.791Z,34.53
2022-12-16T12:22:31.370Z,34.57
2022-12-16T12:25:33.127Z,34.54
2022-12-16T12:28:21.014Z,33.79
2022-12-16T12:31:11.661Z,33.11
2022-12-16T12:34:12.855Z,32.51
2022-12-16T12:37:04.954Z,31.59
2022-12-16T12:39:53.878Z,30.76
2022-12-16T12:42:49.277Z,30.31
2022-12-16T12:45:48.213Z,29.80
2022-12-16T12:48:35.999Z,29.27
2022-12-16T12:51:26.503Z,28.49
2022-12-16T12:54:15.004Z,27.45
2022-12-16T12:57:01.957Z,26.04
2022-12-16T12:59:48.421Z,24.26
2022-12-16T13:02:34.611Z,22.51
2022-12-16T13:05:24.322Z,20.68
2022-12-16T13:08:11.838Z,19.10
2022-12-16T13:11:09.280Z,17.78
2022-12-16T13:13:55.640Z,15.80
2022-12-16T13:17:25.468Z,15.57
2022-12-16T13:20:15.661Z,14.67
2022-12-16T13:23:01.918Z,14.08
2022-12-16T13:26:01.763Z,13.58
2022-12-16T13:28:48.379Z,13.23
2022-12-16T13:31:33.936Z,12.96
2022-12-16T13:34:22.671Z,12.71
2022-12-16T13:37:19.539Z,12.58
2022-12-16T13:40:19.202Z,12.30
2022-12-16T13:43:13.202Z,12.15
2022-12-16T13:46:00.318Z,12.00
2022-12-16T13:48:56.667Z,11.83
2022-12-16T13:52:26.657Z,11.74
2022-12-16T13:55:24.629Z,11.50
2022-12-16T13:58:11.371Z,11.30
2022-12-16T14:00:58.681Z,11.07
2022-12-16T14:03:55.342Z,10.92
2022-12-16T14:06:41.928Z,10.08
2022-12-16T14:09:37.243Z,10.54
2022-12-16T14:12:35.349Z,10.37
2022-12-16T14:15:29.089Z,10.18
2022-12-16T14:18:17.860Z,10.04
2022-12-16T14:21:06.969Z,9.83
2022-12-16T14:23:57.424Z,9.72
2022-12-16T14:26:43.535Z,9.63
2022-12-16T14:29:36.004Z,9.55
2022-12-16T14:32:21.979Z,9.43
2022-12-16T14:35:09.740Z,9.28
2022-12-16T14:37:56.092Z,9.18
2022-12-16T14:40:42.448Z,9.01
2022-12-16T14:43:31.042Z,8.93
2022-12-16T14:46:16.844Z,8.82
2022-12-16T14:49:04.522Z,8.24
2022-12-16T14:51:52.093Z,8.51
2022-12-16T14:54:39.749Z,8.48
2022-12-16T14:57:29.561Z,8.40
2022-12-16T15:00:31.139Z,8.31
2022-12-16T15:03:19.060Z,8.22
2022-12-16T15:06:04.959Z,7.95
2022-12-16T15:08:53.615Z,8.04
2022-12-16T15:11:39.991Z,7.85
2022-12-16T15:14:25.399Z,7.84
2022-12-16T15:17:11.274Z,7.71
2022-12-16T15:20:03.106Z,7.63
2022-12-16T15:22:48.964Z,7.55
2022-12-16T15:25:40.258Z,7.44
2022-12-16T15:28:41.062Z,7.29
2022-12-16T15:31:32.697Z,7.21
2022-12-16T15:34:36.297Z,7.15
2022-12-16T15:37:22.733Z,7.07
2022-12-16T15:40:08.207Z,6.94
2022-12-16T15:43:00.988Z,6.87
2022-12-16T15:45:49.497Z,6.78
2022-12-16T15:48:37.757Z,6.70
2022-12-16T15:51:34.699Z,6.62
2022-12-16T15:54:20.705Z,6.48
2022-12-16T15:57:07.205Z,6.48
2022-12-16T15:59:54.828Z,6.39
2022-12-16T16:02:41.543Z,6.26
2022-12-16T16:05:30.951Z,6.23
2022-12-16T16:08:16.426Z,6.17
2022-12-16T16:11:03.449Z,6.00
2022-12-16T16:13:52.884Z,5.99
2022-12-16T16:16:39.793Z,5.97
2022-12-16T16:19:28.582Z,5.90
2022-12-16T16:22:14.177Z,5.83
2022-12-16T16:24:59.824Z,5.69
2022-12-16T16:27:45.500Z,5.71
2022-12-16T16:30:31.968Z,5.66
2022-12-16T16:33:19.519Z,5.60
2022-12-16T16:36:05.136Z,5.54
2022-12-16T16:39:02.788Z,5.49
2022-12-16T16:41:48.565Z,5.30
2022-12-16T16:44:34.383Z,5.39
2022-12-16T16:47:20.100Z,5.36
2022-12-16T16:50:07.363Z,5.26
2022-12-16T16:52:52.550Z,5.24
2022-12-16T16:55:39.587Z,5.24
2022-12-16T16:58:26.268Z,5.17
2022-12-16T17:01:12.065Z,5.12
2022-12-16T17:03:57.964Z,5.08
2022-12-16T17:06:45.674Z,4.94
2022-12-16T17:09:31.413Z,4.90
2022-12-16T17:12:22.220Z,4.88
2022-12-16T17:18:52.177Z,4.49
2022-12-16T17:21:41.730Z,4.68
2022-12-16T17:24:31.862Z,4.59
2022-12-16T17:27:20.537Z,4.57
2022-12-16T17:30:06.169Z,4.52
2022-12-16T17:32:51.936Z,4.31
2022-12-16T17:35:37.529Z,4.34
2022-12-16T17:38:22.747Z,4.39
2022-12-16T17:41:11.899Z,4.36
2022-12-16T17:43:57.942Z,4.29
2022-12-16T17:46:43.273Z,4.28
2022-12-16T17:49:28.951Z,4.25
2022-12-16T17:52:14.665Z,4.01
2022-12-16T17:55:00.298Z,4.16
2022-12-16T17:57:48.466Z,4.39
2022-12-16T18:00:36.323Z,4.36
2022-12-16T18:03:22.384Z,4.50
2022-12-16T18:06:08.318Z,4.53
2022-12-16T18:08:53.758Z,4.62
2022-12-16T18:11:47.708Z,4.58
2022-12-16T18:14:34.463Z,4.75
2022-12-16T18:17:20.090Z,4.72
2022-12-16T18:20:05.904Z,4.79
2022-12-16T18:22:54.368Z,4.80
2022-12-16T18:25:40.285Z,4.86
2022-12-16T18:28:25.820Z,4.85
2022-12-16T18:31:12.853Z,4.77
2022-12-16T18:33:58.462Z,4.77
2022-12-16T18:36:43.986Z,4.79
2022-12-16T18:39:30.655Z,4.73
2022-12-16T18:42:16.051Z,4.76
2022-12-16T18:45:07.187Z,4.75
2022-12-16T18:47:54.662Z,4.73
2022-12-16T18:50:40.919Z,4.67
2022-12-16T18:53:26.503Z,4.68
2022-12-16T18:56:19.437Z,4.69
2022-12-16T18:59:06.937Z,4.68
2022-12-16T19:01:52.347Z,4.66
2022-12-16T19:04:39.622Z,4.61
2022-12-16T19:07:25.134Z,4.60
2022-12-16T19:10:10.490Z,4.59
2022-12-16T19:12:56.478Z,4.54
2022-12-16T19:15:41.933Z,4.55
2022-12-16T19:18:27.836Z,4.55
2022-12-16T19:21:15.131Z,4.50
2022-12-16T19:24:00.444Z,4.51
2022-12-16T19:26:45.963Z,4.53
2022-12-16T19:29:31.391Z,4.53
2022-12-16T19:32:16.867Z,4.54
2022-12-16T19:35:02.316Z,4.42
2022-12-16T19:37:48.878Z,4.49
2022-12-16T19:40:34.501Z,4.50
2022-12-16T19:43:19.091Z,4.51
2022-12-16T19:46:10.451Z,4.47
2022-12-16T19:51:29.624Z,4.29
2022-12-16T19:54:16.188Z,4.15
2022-12-16T19:57:01.521Z,4.17
2022-12-16T19:59:46.935Z,4.10
2022-12-16T20:02:33.346Z,3.88
2022-12-16T20:05:18.569Z,4.08
2022-12-16T20:08:03.861Z,4.08
2022-12-16T20:10:50.555Z,4.07
2022-12-16T20:13:40.238Z,4.09
2022-12-16T20:16:27.646Z,4.11
2022-12-16T20:22:22.125Z,4.15
2022-12-16T20:25:07.443Z,4.13
2022-12-16T20:27:54.143Z,4.15
2022-12-16T20:30:41.694Z,4.19
2022-12-16T20:33:31.180Z,4.22
2022-12-16T20:36:17.131Z,4.23
2022-12-16T20:39:02.712Z,4.22
2022-12-16T20:41:49.179Z,3.81
2022-12-16T20:44:35.746Z,4.21
2022-12-16T20:47:21.121Z,4.22
2022-12-16T20:50:06.698Z,4.23
2022-12-16T20:52:52.055Z,4.25
2022-12-16T20:55:37.141Z,4.16
2022-12-16T20:58:22.513Z,4.30
2022-12-16T21:01:10.856Z,4.29
2022-12-16T21:03:56.230Z,4.34
2022-12-16T21:06:42.684Z,4.34
2022-12-16T21:09:27.724Z,4.36
2022-12-16T21:12:13.078Z,4.33
2022-12-16T21:14:58.062Z,4.30
2022-12-16T21:17:45.065Z,4.29
2022-12-16T21:20:30.349Z,4.24
2022-12-16T21:23:18.885Z,3.99
2022-12-16T21:26:03.970Z,4.26
2022-12-16T21:28:53.340Z,4.04
2022-12-16T21:31:42.703Z,3.94
2022-12-16T21:34:31.172Z,3.69
2022-12-16T21:37:19.581Z,3.57
2022-12-16T21:40:04.780Z,3.52
2022-12-16T21:42:56.406Z,3.33
2022-12-16T21:45:41.954Z,3.32
2022-12-16T21:48:29.610Z,3.27
2022-12-16T21:51:16.426Z,3.04
2022-12-16T21:54:04.888Z,3.23
2022-12-16T21:56:53.212Z,3.23
2022-12-16T21:59:47.269Z,3.23
2022-12-16T22:02:32.688Z,3.26
2022-12-16T22:05:18.157Z,3.24
2022-12-16T22:08:05.780Z,3.14
2022-12-16T22:10:50.857Z,2.80
2022-12-16T22:13:45.778Z,3.04
2022-12-16T22:16:31.057Z,3.22
2022-12-16T22:19:15.594Z,2.92
2022-12-16T22:22:01.092Z,3.28
2022-12-16T22:24:49.034Z,3.28
2022-12-16T22:27:34.276Z,3.14
2022-12-16T22:30:19.452Z,3.27
2022-12-16T22:33:04.824Z,2.95
2022-12-16T22:35:50.446Z,3.19
2022-12-16T22:38:35.584Z,2.74
2022-12-16T22:41:22.294Z,3.09
2022-12-16T22:44:07.464Z,3.04
2022-12-16T22:46:52.858Z,3.00
2022-12-16T22:49:41.713Z,2.99
2022-12-16T22:52:27.106Z,2.72
2022-12-16T22:55:12.235Z,2.76
2022-12-16T22:57:59.029Z,2.93
2022-12-16T23:00:43.990Z,2.91
2022-12-16T23:03:33.272Z,2.81
2022-12-16T23:06:18.498Z,2.76
2022-12-16T23:09:03.833Z,2.67
2022-12-16T23:11:51.170Z,2.55
2022-12-16T23:14:42.745Z,2.67
2022-12-16T23:17:29.368Z,2.53
2022-12-16T23:20:14.752Z,2.75
2022-12-16T23:22:59.672Z,2.43
2022-12-16T23:25:45.112Z,2.76
2022-12-16T23:28:30.469Z,2.72
2022-12-16T23:31:17.204Z,2.76
2022-12-16T23:34:02.362Z,2.54
2022-12-16T23:36:47.567Z,2.57
2022-12-16T23:39:29.560Z,2.56
2022-12-16T23:42:15.382Z,2.57
2022-12-16T23:45:01.825Z,2.56
2022-12-16T23:47:48.580Z,2.58
2022-12-16T23:50:34.167Z,2.62
2022-12-16T23:53:22.568Z,2.27
2022-12-16T23:56:07.651Z,2.75
2022-12-16T23:58:52.404Z,2.52
